createdAt,value
2023-05-12T00:00:08.104Z,3.50
2023-05-12T00:03:03.967Z,3.10
2023-05-12T00:05:32.456Z,3.30
2023-05-12T00:08:00.452Z,3.50
2023-05-12T00:10:28.830Z,3.20
2023-05-12T00:12:57.013Z,3.30
2023-05-12T00:15:25.046Z,3.40
2023-05-12T00:17:53.108Z,3.50
2023-05-12T00:20:21.878Z,3.50
2023-05-12T00:22:50.173Z,3.60
2023-05-12T00:25:18.257Z,3.20
2023-05-12T00:27:46.324Z,3.40
2023-05-12T00:30:14.597Z,3.40
2023-05-12T00:32:42.581Z,3.30
2023-05-12T00:35:10.844Z,3.40
2023-05-12T00:37:38.809Z,3.30
2023-05-12T00:40:07.658Z,3.60
2023-05-12T00:42:36.284Z,3.50
2023-05-12T00:45:05.439Z,3.90
2023-05-12T00:47:34.184Z,3.70
2023-05-12T00:50:04.362Z,3.40
2023-05-12T00:52:32.465Z,3.70
2023-05-12T00:55:02.309Z,3.70
2023-05-12T00:57:30.592Z,3.50
2023-05-12T00:59:59.028Z,3.70
2023-05-12T01:02:27.379Z,3.60
2023-05-12T01:04:56.299Z,3.80
2023-05-12T01:07:26.332Z,3.70
2023-05-12T01:09:58.751Z,3.60
2023-05-12T01:12:28.286Z,3.60
2023-05-12T01:14:58.707Z,3.80
2023-05-12T01:17:30.789Z,3.70
2023-05-12T01:20:02.938Z,3.80
2023-05-12T01:22:33.985Z,3.50
2023-05-12T01:25:05.237Z,3.60
2023-05-12T01:27:34.635Z,3.70
2023-05-12T01:30:05.119Z,3.70
2023-05-12T01:32:38.458Z,3.20
2023-05-12T01:35:08.025Z,3.70
2023-05-12T01:37:37.729Z,3.80
2023-05-12T01:40:07.794Z,3.60
2023-05-12T01:42:38.057Z,3.70
2023-05-12T01:45:06.691Z,3.80
2023-05-12T01:47:35.263Z,3.90
2023-05-12T01:50:07.647Z,3.70
2023-05-12T01:52:35.810Z,3.80
2023-05-12T01:55:05.270Z,4.10
2023-05-12T01:57:46.398Z,3.60
2023-05-12T02:00:15.402Z,3.70
2023-05-12T02:02:43.589Z,3.90
2023-05-12T02:05:12.953Z,4.20
2023-05-12T02:07:41.840Z,3.80
2023-05-12T02:10:10.633Z,4.20
2023-05-12T02:12:39.230Z,4.20
2023-05-12T02:15:08.615Z,4.10
2023-05-12T02:17:38.990Z,4.10
2023-05-12T02:20:08.399Z,3.90
2023-05-12T02:22:36.403Z,4.00
2023-05-12T02:25:05.270Z,4.30
2023-05-12T02:27:33.897Z,4.10
2023-05-12T02:30:02.235Z,4.00
2023-05-12T02:32:30.568Z,4.20
2023-05-12T02:34:58.605Z,4.00
2023-05-12T02:37:26.878Z,4.00
2023-05-12T02:39:55.047Z,4.40
2023-05-12T02:42:23.123Z,4.10
2023-05-12T02:44:51.176Z,4.10
2023-05-12T02:47:19.161Z,3.80
2023-05-12T02:49:47.133Z,4.00
2023-05-12T02:52:15.620Z,4.20
2023-05-12T02:54:43.681Z,4.30
2023-05-12T02:57:11.892Z,5.40
2023-05-12T02:59:39.823Z,3.90
2023-05-12T03:02:07.938Z,4.00
2023-05-12T03:04:37.192Z,4.00
2023-05-12T03:07:06.188Z,3.90
2023-05-12T03:09:34.981Z,3.80
2023-05-12T03:12:03.144Z,3.80
2023-05-12T03:14:31.417Z,4.00
2023-05-12T03:16:59.728Z,4.10
2023-05-12T03:19:28.180Z,4.00
2023-05-12T03:21:56.368Z,3.90
2023-05-12T03:24:24.436Z,4.30
2023-05-12T03:26:52.792Z,3.60
2023-05-12T03:29:21.437Z,4.00
2023-05-12T03:31:49.429Z,4.20
2023-05-12T03:34:17.749Z,3.90
2023-05-12T03:36:45.957Z,4.00
2023-05-12T03:39:14.168Z,3.80
2023-05-12T03:41:42.287Z,4.20
2023-05-12T03:44:11.359Z,4.00
2023-05-12T03:46:39.501Z,3.90
2023-05-12T03:49:07.683Z,4.10
2023-05-12T03:51:35.754Z,3.90
2023-05-12T03:54:04.133Z,4.00
2023-05-12T03:56:33.030Z,3.90
2023-05-12T03:59:01.098Z,4.50
2023-05-12T04:01:29.363Z,4.40
2023-05-12T04:03:57.478Z,4.10
2023-05-12T04:06:25.605Z,4.00
2023-05-12T04:08:53.675Z,4.10
2023-05-12T04:11:21.748Z,3.70
2023-05-12T04:13:49.827Z,4.00
2023-05-12T04:16:17.911Z,3.90
2023-05-12T04:18:45.902Z,4.00
2023-05-12T04:21:13.859Z,4.20
2023-05-12T04:23:41.902Z,3.70
2023-05-12T04:26:10.376Z,3.90
2023-05-12T04:28:38.699Z,3.90
2023-05-12T04:31:06.834Z,3.70
2023-05-12T04:33:35.922Z,3.70
2023-05-12T04:36:06.264Z,3.80
2023-05-12T04:38:34.422Z,3.80
2023-05-12T04:41:02.365Z,3.40
2023-05-12T04:46:01.841Z,3.80
2023-05-12T04:48:29.852Z,3.80
2023-05-12T04:51:01.090Z,3.60
2023-05-12T04:53:29.496Z,3.80
2023-05-12T04:55:57.465Z,3.70
2023-05-12T04:58:28.091Z,3.50
2023-05-12T05:00:57.037Z,3.50
2023-05-12T05:03:25.798Z,3.50
2023-05-12T05:05:53.944Z,4.00
2023-05-12T05:08:22.324Z,3.60
2023-05-12T05:10:50.288Z,3.80
2023-05-12T05:13:18.565Z,3.90
2023-05-12T05:15:53.609Z,3.20
2023-05-12T05:18:24.176Z,3.90
2023-05-12T05:23:24.479Z,3.80
2023-05-12T05:25:52.737Z,3.70
2023-05-12T05:28:20.911Z,3.50
2023-05-12T05:30:48.932Z,3.70
2023-05-12T05:33:17.599Z,3.80
2023-05-12T05:35:46.768Z,3.50
2023-05-12T05:38:15.036Z,3.40
2023-05-12T05:40:52.843Z,3.70
2023-05-12T05:43:22.237Z,3.30
2023-05-12T05:45:51.586Z,3.80
2023-05-12T05:48:22.064Z,4.10
2023-05-12T05:50:52.203Z,3.90
2023-05-12T05:53:21.194Z,3.80
2023-05-12T05:55:49.453Z,4.10
2023-05-12T05:58:17.683Z,3.70
2023-05-12T06:00:46.920Z,3.30
2023-05-12T06:03:15.009Z,3.60
2023-05-12T06:05:44.298Z,3.10
2023-05-12T06:08:13.682Z,3.40
2023-05-12T06:10:42.005Z,3.40
2023-05-12T06:13:10.053Z,3.70
2023-05-12T06:15:39.023Z,3.40
2023-05-12T06:18:07.050Z,3.60
2023-05-12T06:20:35.166Z,3.70
2023-05-12T06:23:03.242Z,3.30
2023-05-12T06:25:33.352Z,3.40
2023-05-12T06:28:02.450Z,3.60
2023-05-12T06:30:30.544Z,3.40
2023-05-12T06:32:59.743Z,3.30
2023-05-12T06:35:28.919Z,3.30
2023-05-12T06:37:56.904Z,3.40
2023-05-12T06:40:24.964Z,3.10
2023-05-12T06:42:54.779Z,3.70
2023-05-12T06:45:23.892Z,3.50
2023-05-12T06:47:52.911Z,3.60
2023-05-12T06:50:21.110Z,3.50
2023-05-12T06:52:53.638Z,3.80
2023-05-12T06:55:22.740Z,3.50
2023-05-12T06:57:55.846Z,3.70
2023-05-12T07:00:25.025Z,3.30
2023-05-12T07:02:53.333Z,3.60
2023-05-12T07:05:21.712Z,3.60
2023-05-12T07:07:50.019Z,3.40
2023-05-12T07:10:18.189Z,3.40
2023-05-12T07:12:46.275Z,3.30
2023-05-12T07:15:14.221Z,3.40
2023-05-12T07:17:42.475Z,3.50
2023-05-12T07:20:11.058Z,3.20
2023-05-12T07:22:39.258Z,3.40
2023-05-12T07:25:08.322Z,3.30
2023-05-12T07:27:36.414Z,3.00
2023-05-12T07:30:06.648Z,3.50
2023-05-12T07:32:35.012Z,3.20
2023-05-12T07:35:03.846Z,3.20
2023-05-12T07:37:32.498Z,3.40
2023-05-12T07:40:00.763Z,3.60
2023-05-12T07:42:28.957Z,3.20
2023-05-12T07:44:57.008Z,3.00
2023-05-12T07:47:25.162Z,3.20
2023-05-12T07:49:53.510Z,3.20
2023-05-12T07:52:21.914Z,3.00
2023-05-12T07:54:49.961Z,3.10
2023-05-12T07:57:18.005Z,2.90
2023-05-12T07:59:46.047Z,3.10
2023-05-12T08:02:14.057Z,3.00
2023-05-12T08:04:44.378Z,2.80
2023-05-12T08:07:12.616Z,2.80
2023-05-12T08:09:40.564Z,2.70
2023-05-12T08:12:09.468Z,3.00
2023-05-12T08:14:37.821Z,2.80
2023-05-12T08:17:06.979Z,3.10
2023-05-12T08:19:35.055Z,2.90
2023-05-12T08:22:03.490Z,3.10
2023-05-12T08:24:31.562Z,2.70
2023-05-12T08:26:59.533Z,2.80
2023-05-12T08:29:27.506Z,2.60
2023-05-12T08:31:56.196Z,2.80
2023-05-12T08:34:25.337Z,2.70
2023-05-12T08:36:54.374Z,2.60
2023-05-12T08:39:22.548Z,2.80
2023-05-12T08:42:03.730Z,2.90
2023-05-12T08:44:32.934Z,2.70
2023-05-12T08:47:02.005Z,2.90
2023-05-12T08:49:32.957Z,2.80
2023-05-12T08:52:05.334Z,2.70
2023-05-12T08:54:36.052Z,3.00
2023-05-12T08:57:10.206Z,2.80
2023-05-12T08:59:43.875Z,2.60
2023-05-12T09:02:13.888Z,2.60
2023-05-12T09:04:43.239Z,2.60
2023-05-12T09:07:11.458Z,3.10
2023-05-12T09:09:43.773Z,2.60
2023-05-12T09:12:16.784Z,7.20
2023-05-12T09:14:47.098Z,2.80
2023-05-12T09:17:15.207Z,2.70
2023-05-12T09:19:43.289Z,2.90
2023-05-12T09:22:15.033Z,2.70
2023-05-12T09:24:46.095Z,2.70
2023-05-12T09:27:14.059Z,2.80
2023-05-12T09:29:59.225Z,2.50
2023-05-12T09:32:33.114Z,2.70
2023-05-12T09:35:12.695Z,2.60
2023-05-12T09:37:40.903Z,2.70
2023-05-12T09:40:11.648Z,2.60
2023-05-12T09:42:42.847Z,2.80
2023-05-12T09:45:14.186Z,2.70
2023-05-12T09:47:42.653Z,2.50
2023-05-12T09:50:11.152Z,2.40
2023-05-12T09:52:40.062Z,2.50
2023-05-12T09:55:10.875Z,2.50
2023-05-12T09:57:41.578Z,4.30
2023-05-12T10:00:28.619Z,2.70
2023-05-12T10:03:09.618Z,2.70
2023-05-12T10:05:46.445Z,2.50
2023-05-12T10:08:21.620Z,2.60
2023-05-12T10:10:52.621Z,2.30
2023-05-12T10:13:21.500Z,2.10
2023-05-12T10:15:51.328Z,2.50
2023-05-12T10:18:19.771Z,2.50
2023-05-12T10:20:48.991Z,2.20
2023-05-12T10:23:18.887Z,2.30
2023-05-12T10:25:48.121Z,2.40
2023-05-12T10:28:16.866Z,2.20
2023-05-12T10:30:46.768Z,2.40
2023-05-12T10:33:15.960Z,2.30
2023-05-12T10:35:46.212Z,2.50
2023-05-12T10:38:16.915Z,2.50
2023-05-12T10:41:03.188Z,2.50
2023-05-12T10:43:43.410Z,2.50
2023-05-12T10:46:19.955Z,2.30
2023-05-12T10:49:04.614Z,2.40
2023-05-12T10:51:35.389Z,2.40
2023-05-12T10:54:08.330Z,2.20
2023-05-12T10:56:39.770Z,2.20
2023-05-12T10:59:20.487Z,2.20
2023-05-12T11:02:01.899Z,2.20
2023-05-12T11:04:37.708Z,2.30
2023-05-12T11:07:11.462Z,2.30
2023-05-12T11:09:53.120Z,2.50
2023-05-12T11:12:32.828Z,2.30
2023-05-12T11:15:02.660Z,2.20
2023-05-12T11:17:34.055Z,2.50
2023-05-12T11:20:02.275Z,2.50
2023-05-12T11:22:30.446Z,2.60
2023-05-12T11:24:58.639Z,2.60
2023-05-12T11:27:26.793Z,2.20
2023-05-12T11:30:03.259Z,2.30
2023-05-12T11:32:31.505Z,2.10
2023-05-12T11:35:17.515Z,2.50
2023-05-12T11:37:46.528Z,2.50
2023-05-12T11:40:15.876Z,2.40
2023-05-12T11:42:48.944Z,2.70
2023-05-12T11:45:29.045Z,2.70
2023-05-12T11:48:15.745Z,2.50
2023-05-12T11:50:48.547Z,2.60
2023-05-12T11:53:19.317Z,2.50
2023-05-12T11:55:52.370Z,2.40
2023-05-12T11:58:23.864Z,2.60
2023-05-12T12:00:52.004Z,2.40
2023-05-12T12:03:20.468Z,2.50
2023-05-12T12:06:00.685Z,2.60
2023-05-12T12:08:28.978Z,2.50
2023-05-12T12:10:57.289Z,2.50
2023-05-12T12:13:26.396Z,2.60
2023-05-12T12:15:54.498Z,2.30
2023-05-12T12:18:22.540Z,2.30
2023-05-12T12:20:50.699Z,2.40
2023-05-12T12:23:18.658Z,2.20
2023-05-12T12:25:46.623Z,2.50
2023-05-12T12:28:15.012Z,2.50
2023-05-12T12:30:43.300Z,2.50
2023-05-12T12:33:11.487Z,2.50
2023-05-12T12:35:39.633Z,2.60
2023-05-12T12:38:07.715Z,2.60
2023-05-12T12:40:35.760Z,2.30
2023-05-12T12:43:04.140Z,2.40
2023-05-12T12:45:32.208Z,2.60
2023-05-12T12:48:00.253Z,2.80
2023-05-12T12:50:28.463Z,2.50
2023-05-12T12:52:56.418Z,2.60
2023-05-12T12:55:24.460Z,2.50
2023-05-12T12:57:52.571Z,2.70
2023-05-12T13:00:23.571Z,2.30
2023-05-12T13:02:52.174Z,2.50
2023-05-12T13:05:20.580Z,2.80
2023-05-12T13:07:49.051Z,2.20
2023-05-12T13:10:17.335Z,2.60
2023-05-12T13:12:45.391Z,2.50
2023-05-12T13:15:13.381Z,2.60
2023-05-12T13:17:41.566Z,2.30
2023-05-12T13:20:10.754Z,2.40
2023-05-12T13:22:39.019Z,2.60
2023-05-12T13:25:11.244Z,2.40
2023-05-12T13:27:39.242Z,2.50
2023-05-12T13:30:08.153Z,2.30
2023-05-12T13:32:36.445Z,2.30
2023-05-12T13:35:05.258Z,2.30
2023-05-12T13:37:33.161Z,3.40
2023-05-12T13:40:01.263Z,2.30
2023-05-12T13:42:29.455Z,2.60
2023-05-12T13:44:57.590Z,2.50
2023-05-12T13:47:25.638Z,2.70
2023-05-12T13:49:53.815Z,2.60
2023-05-12T13:52:22.092Z,2.50
2023-05-12T13:54:50.189Z,2.60
2023-05-12T13:57:18.129Z,2.40
2023-05-12T13:59:46.195Z,2.30
2023-05-12T14:02:15.468Z,2.50
2023-05-12T14:04:43.520Z,2.50
2023-05-12T14:07:12.774Z,2.70
2023-05-12T14:09:41.445Z,2.30
2023-05-12T14:12:09.623Z,2.40
2023-05-12T14:14:37.587Z,2.40
2023-05-12T14:17:05.794Z,2.40
2023-05-12T14:19:35.877Z,2.30
2023-05-12T14:22:12.494Z,2.50
2023-05-12T14:24:47.086Z,2.50
2023-05-12T14:27:15.061Z,2.10
2023-05-12T14:29:43.014Z,2.20
2023-05-12T14:32:11.246Z,2.20
2023-05-12T14:34:39.569Z,2.40
2023-05-12T14:37:07.526Z,2.50
2023-05-12T14:39:35.503Z,2.40
2023-05-12T14:42:04.082Z,2.40
2023-05-12T14:44:32.402Z,2.30
2023-05-12T14:47:00.289Z,2.30
2023-05-12T14:49:28.256Z,2.10
2023-05-12T14:51:56.260Z,2.30
2023-05-12T14:54:25.999Z,2.30
2023-05-12T14:56:54.564Z,2.50
2023-05-12T14:59:22.537Z,2.50
2023-05-12T15:01:50.630Z,2.60
2023-05-12T15:04:18.668Z,2.20
2023-05-12T15:06:46.853Z,2.40
2023-05-12T15:09:14.926Z,2.30
2023-05-12T15:11:45.644Z,2.30
2023-05-12T15:14:13.825Z,2.20
2023-05-12T15:16:41.985Z,2.20
2023-05-12T15:19:10.792Z,2.40
2023-05-12T15:21:38.952Z,2.30
2023-05-12T15:24:07.016Z,2.60
2023-05-12T15:26:36.715Z,2.20
2023-05-12T15:29:05.718Z,2.40
2023-05-12T15:31:33.726Z,2.20
2023-05-12T15:34:01.768Z,2.70
2023-05-12T15:36:31.088Z,2.50
2023-05-12T15:38:59.227Z,2.40
2023-05-12T15:41:27.395Z,2.60
2023-05-12T15:43:55.477Z,2.40
2023-05-12T15:46:24.465Z,2.60
2023-05-12T15:48:52.572Z,2.40
2023-05-12T15:51:20.741Z,2.30
2023-05-12T15:53:50.684Z,2.50
2023-05-12T15:56:18.791Z,2.20
2023-05-12T15:58:46.758Z,2.50
2023-05-12T16:01:14.660Z,3.20
2023-05-12T16:03:42.797Z,2.20
2023-05-12T16:06:10.869Z,2.60
2023-05-12T16:08:39.052Z,2.30
2023-05-12T16:11:07.123Z,2.60
2023-05-12T16:13:35.352Z,2.80
2023-05-12T16:16:03.572Z,3.00
2023-05-12T16:18:32.215Z,2.50
2023-05-12T16:21:02.057Z,2.40
2023-05-12T16:23:30.228Z,2.40
2023-05-12T16:25:59.537Z,2.60
2023-05-12T16:28:27.592Z,2.50
2023-05-12T16:30:56.660Z,2.50
2023-05-12T16:33:24.966Z,2.50
2023-05-12T16:35:53.354Z,2.50
2023-05-12T16:38:21.439Z,2.70
2023-05-12T16:40:49.477Z,2.40
2023-05-12T16:43:17.574Z,2.30
2023-05-12T16:45:45.682Z,2.70
2023-05-12T16:48:13.792Z,2.60
2023-05-12T16:50:42.004Z,2.50
2023-05-12T16:53:10.448Z,2.90
2023-05-12T16:55:38.415Z,2.60
2023-05-12T16:58:07.404Z,2.80
2023-05-12T17:00:35.478Z,2.90
2023-05-12T17:03:04.899Z,3.20
2023-05-12T17:05:33.871Z,3.50
2023-05-12T17:08:01.842Z,3.40
2023-05-12T17:10:29.910Z,2.90
2023-05-12T17:12:58.584Z,2.80
2023-05-12T17:15:27.064Z,2.80
2023-05-12T17:17:55.242Z,2.60
2023-05-12T17:20:23.985Z,2.60
2023-05-12T17:22:51.965Z,2.70
2023-05-12T17:25:21.587Z,2.70
2023-05-12T17:27:50.266Z,2.90
2023-05-12T17:30:18.878Z,2.90
2023-05-12T17:32:47.360Z,3.10
2023-05-12T17:35:15.333Z,2.70
2023-05-12T17:37:43.321Z,2.90
2023-05-12T17:40:17.938Z,2.80
2023-05-12T17:42:46.205Z,3.20
2023-05-12T17:45:14.926Z,2.90
2023-05-12T17:47:44.224Z,3.30
2023-05-12T17:50:14.102Z,3.20
2023-05-12T17:52:43.526Z,3.40
2023-05-12T17:55:11.873Z,3.20
2023-05-12T17:57:40.048Z,3.00
2023-05-12T18:00:11.730Z,3.20
2023-05-12T18:02:42.832Z,3.10
2023-05-12T18:05:11.238Z,3.60
2023-05-12T18:07:39.365Z,3.40
2023-05-12T18:10:09.344Z,3.70
2023-05-12T18:12:38.926Z,3.70
2023-05-12T18:15:08.638Z,3.30
2023-05-12T18:17:37.077Z,4.90
2023-05-12T18:20:06.742Z,4.40
2023-05-12T18:22:34.985Z,4.00
2023-05-12T18:25:03.049Z,5.60
2023-05-12T18:27:31.535Z,6.10
2023-05-12T18:29:59.507Z,4.50
2023-05-12T18:32:27.628Z,4.30
2023-05-12T18:34:55.849Z,4.00
2023-05-12T18:37:23.920Z,3.60
2023-05-12T18:39:54.481Z,3.50
2023-05-12T18:42:22.633Z,8.60
2023-05-12T18:44:50.691Z,9.00
2023-05-12T18:47:18.761Z,9.80
2023-05-12T18:49:46.823Z,6.80
2023-05-12T18:52:14.784Z,5.40
2023-05-12T18:54:42.762Z,6.10
2023-05-12T18:57:11.447Z,4.90
2023-05-12T18:59:39.378Z,4.20
2023-05-12T19:02:07.619Z,4.80
2023-05-12T19:04:35.676Z,4.50
2023-05-12T19:07:04.141Z,4.30
2023-05-12T19:09:32.193Z,4.40
2023-05-12T19:12:00.385Z,3.90
2023-05-12T19:14:28.334Z,3.80
2023-05-12T19:16:56.539Z,3.80
2023-05-12T19:19:24.456Z,3.70
2023-05-12T19:21:52.711Z,3.60
2023-05-12T19:24:24.460Z,3.60
2023-05-12T19:26:52.595Z,3.60
2023-05-12T19:29:20.996Z,3.60
2023-05-12T19:31:49.588Z,3.10
2023-05-12T19:34:17.735Z,3.30
2023-05-12T19:36:45.693Z,3.00
2023-05-12T19:39:13.774Z,3.50
2023-05-12T19:41:41.840Z,3.00
2023-05-12T19:44:09.780Z,3.00
2023-05-12T19:46:37.828Z,2.90
2023-05-12T19:49:06.105Z,3.10
2023-05-12T19:51:34.231Z,3.10
2023-05-12T19:54:04.966Z,3.20
2023-05-12T19:56:33.229Z,3.10
2023-05-12T19:59:01.302Z,3.10
2023-05-12T20:01:29.334Z,3.00
2023-05-12T20:03:57.543Z,3.40
2023-05-12T20:06:25.722Z,3.40
2023-05-12T20:08:53.789Z,3.80
2023-05-12T20:11:21.756Z,3.40
2023-05-12T20:13:49.823Z,3.50
2023-05-12T20:16:18.066Z,3.50
2023-05-12T20:18:46.458Z,3.10
2023-05-12T20:21:14.443Z,3.40
2023-05-12T20:23:42.516Z,3.70
2023-05-12T20:26:10.788Z,3.70
2023-05-12T20:28:39.273Z,3.70
2023-05-12T20:31:07.570Z,4.00
2023-05-12T20:33:35.514Z,4.50
2023-05-12T20:36:03.651Z,3.80
2023-05-12T20:38:32.167Z,3.80
2023-05-12T20:41:07.841Z,3.70
2023-05-12T20:43:35.991Z,3.50
2023-05-12T20:46:04.977Z,3.30
2023-05-12T20:48:33.321Z,3.30
2023-05-12T20:51:11.679Z,3.30
2023-05-12T20:53:39.841Z,3.30
2023-05-12T20:56:08.598Z,3.40
2023-05-12T20:58:37.003Z,3.60
2023-05-12T21:01:05.043Z,3.60
2023-05-12T21:03:34.199Z,3.80
2023-05-12T21:06:04.558Z,4.00
2023-05-12T21:08:32.579Z,3.40
2023-05-12T21:11:00.829Z,3.40
2023-05-12T21:13:28.904Z,3.20
2023-05-12T21:15:56.881Z,3.50
2023-05-12T21:18:24.830Z,3.30
2023-05-12T21:20:52.840Z,3.60
2023-05-12T21:23:20.884Z,3.10
2023-05-12T21:25:49.242Z,2.90
2023-05-12T21:28:17.839Z,3.00
2023-05-12T21:30:46.176Z,2.80
2023-05-12T21:33:14.286Z,3.40
2023-05-12T21:35:42.254Z,3.20
2023-05-12T21:38:10.537Z,3.10
2023-05-12T21:40:38.717Z,3.00
2023-05-12T21:43:06.771Z,3.10
2023-05-12T21:45:34.738Z,3.30
2023-05-12T21:48:02.883Z,3.40
2023-05-12T21:50:31.017Z,3.80
2023-05-12T21:52:59.077Z,3.70
2023-05-12T21:55:27.441Z,3.80
2023-05-12T21:57:55.405Z,3.60
2023-05-12T22:00:23.547Z,3.30
2023-05-12T22:02:52.004Z,3.70
2023-05-12T22:05:20.127Z,3.60
2023-05-12T22:07:48.406Z,3.20
2023-05-12T22:10:16.482Z,3.30
2023-05-12T22:12:45.906Z,3.60
2023-05-12T22:15:13.990Z,3.60
2023-05-12T22:17:42.098Z,3.20
2023-05-12T22:20:11.299Z,3.20
2023-05-12T22:22:39.304Z,3.30
2023-05-12T22:25:08.568Z,3.60
2023-05-12T22:27:37.683Z,3.60
2023-05-12T22:30:06.792Z,3.50
2023-05-12T22:32:34.901Z,4.00
2023-05-12T22:35:03.326Z,3.30
2023-05-12T22:37:32.296Z,3.70
2023-05-12T22:40:00.498Z,4.10
2023-05-12T22:42:28.668Z,5.30
2023-05-12T22:44:57.635Z,6.60
2023-05-12T22:47:25.742Z,5.90
2023-05-12T22:49:53.792Z,6.60
2023-05-12T22:52:21.764Z,4.50
2023-05-12T22:54:54.039Z,6.30
2023-05-12T22:57:22.261Z,7.20
2023-05-12T22:59:50.371Z,5.60
2023-05-12T23:02:18.346Z,6.60
2023-05-12T23:04:46.533Z,6.30
2023-05-12T23:07:14.446Z,6.00
2023-05-12T23:09:42.568Z,4.00
2023-05-12T23:12:10.681Z,3.50
2023-05-12T23:14:38.691Z,3.60
2023-05-12T23:17:06.931Z,3.30
2023-05-12T23:19:35.502Z,3.40
2023-05-12T23:22:03.578Z,3.40
2023-05-12T23:24:31.590Z,3.20
2023-05-12T23:26:59.665Z,3.30
2023-05-12T23:29:27.939Z,3.20
2023-05-12T23:31:56.506Z,3.40
2023-05-12T23:34:24.525Z,2.80
2023-05-12T23:36:52.657Z,3.00
2023-05-12T23:39:21.042Z,2.90
2023-05-12T23:41:49.779Z,3.10
2023-05-12T23:44:17.690Z,3.10
2023-05-12T23:46:45.921Z,3.10
2023-05-12T23:49:14.045Z,3.00
2023-05-12T23:51:42.106Z,2.90
2023-05-12T23:54:10.067Z,3.00
2023-05-12T23:56:38.044Z,2.80
2023-05-12T23:59:06.168Z,3.10
